Clermont, Indiana
Current Conditions -  °F | °C
As of 7:53 AM on Friday 31 Oct 2014 (Local Time) from KEYE Reporting Station
Overcast Overcast  
Wind Chill: 42°   Ceiling: 5500
Heat Index: 46°   Visibility: 10mi
Dew Point: 38°   Wind: 8mph
Humidity: 73%   Direction: 300°WNW
Pressure: 29.98"   Gusts: NA
Location:  39.7872°N, 86.3386°W
Report Text: KEYE 311153Z AUTO 30007KT 10SM OVC055 08/03 A2998 RMK AO2 SLP153 T00780033 10083 20072 56006
Loading
Personal Weather Stations






























Interactive Weather Map
Tropical Storm Tracking
New forecast layout! Learn more

10-Day Weather Forecast

Advertisements
Track Severe Weather on mobile